createdAt,value
2022-11-16T00:01:22.662Z,98643.03
2022-11-16T00:03:53.938Z,98633.19
2022-11-16T00:06:23.733Z,98637.69
2022-11-16T00:09:14.610Z,98631.59
2022-11-16T00:11:43.205Z,98628.44
2022-11-16T00:14:13.278Z,98630.56
2022-11-16T00:16:42.024Z,98628.44
2022-11-16T00:19:12.649Z,98629.00
2022-11-16T00:21:41.863Z,98624.22
2022-11-16T00:24:14.180Z,98623.94
2022-11-16T00:26:42.929Z,98625.81
2022-11-16T00:29:16.294Z,98621.81
2022-11-16T00:31:46.109Z,98638.59
2022-11-16T00:34:14.693Z,98628.75
2022-11-16T00:36:43.396Z,98629.81
2022-11-16T00:39:13.384Z,98627.16
2022-11-16T00:41:42.044Z,98621.59
2022-11-16T00:44:11.007Z,98629.81
2022-11-16T00:46:41.024Z,98618.94
2022-11-16T00:49:10.085Z,98618.94
2022-11-16T00:51:39.439Z,98628.50
2022-11-16T00:54:10.528Z,98619.22
2022-11-16T00:56:40.266Z,98627.97
2022-11-16T00:59:09.193Z,98625.88
2022-11-16T01:01:37.924Z,98624.00
2022-11-16T01:04:09.265Z,98619.50
2022-11-16T01:06:37.806Z,98626.66
2022-11-16T01:09:06.245Z,98616.31
2022-11-16T01:11:52.246Z,98612.09
2022-11-16T01:14:20.615Z,98613.13
2022-11-16T01:16:51.229Z,98611.56
2022-11-16T01:19:23.272Z,98609.19
2022-11-16T01:21:51.775Z,98609.19
2022-11-16T01:24:20.216Z,98604.94
2022-11-16T01:26:48.736Z,98602.00
2022-11-16T01:29:17.919Z,98595.91
2022-11-16T01:31:52.457Z,98589.28
2022-11-16T01:34:22.605Z,98592.72
2022-11-16T01:36:52.373Z,98587.69
2022-11-16T01:39:21.226Z,98583.44
2022-11-16T01:41:54.537Z,98571.22
2022-11-16T01:44:59.226Z,98571.53
2022-11-16T01:47:27.743Z,98572.06
2022-11-16T01:50:10.935Z,98574.19
2022-11-16T01:52:46.627Z,98578.72
2022-11-16T01:55:15.659Z,98578.72
2022-11-16T01:58:02.605Z,98573.69
2022-11-16T02:00:32.825Z,98569.44
2022-11-16T02:03:19.298Z,98568.63
2022-11-16T02:06:14.507Z,98576.88
2022-11-16T02:09:22.076Z,98575.03
2022-11-16T02:12:24.998Z,98576.66
2022-11-16T02:15:09.995Z,98579.31
2022-11-16T02:17:49.855Z,98564.44
2022-11-16T02:21:02.224Z,98568.44
2022-11-16T02:24:30.142Z,98568.19
2022-11-16T02:27:43.464Z,98573.53
2022-11-16T02:30:14.149Z,98565.25
2022-11-16T02:32:51.827Z,98569.78
2022-11-16T02:35:25.355Z,98563.69
2022-11-16T02:38:01.409Z,98559.44
2022-11-16T02:40:33.218Z,98564.47
2022-11-16T02:43:08.263Z,98558.38
2022-11-16T02:45:42.212Z,98559.44
2022-11-16T02:48:16.391Z,98550.69
2022-11-16T02:50:46.037Z,98558.91
2022-11-16T02:53:15.693Z,98563.44
2022-11-16T02:55:44.305Z,98561.31
2022-11-16T02:58:16.134Z,98563.19
2022-11-16T03:00:52.438Z,98565.00
2022-11-16T03:03:29.771Z,98558.69
2022-11-16T03:06:05.285Z,98561.84
2022-11-16T03:08:39.790Z,98565.31
2022-11-16T03:11:39.341Z,98570.91
2022-11-16T03:14:14.902Z,98565.34
2022-11-16T03:16:48.332Z,98578.34
2022-11-16T03:19:23.565Z,98582.88
2022-11-16T03:21:58.537Z,98576.22
2022-11-16T03:24:27.577Z,98566.16
2022-11-16T03:27:03.753Z,98566.41
2022-11-16T03:29:36.605Z,98557.88
2022-11-16T03:32:19.076Z,98565.34
2022-11-16T03:34:58.294Z,98564.56
2022-11-16T03:37:29.431Z,98554.97
2022-11-16T03:40:02.575Z,98557.09
2022-11-16T03:42:34.488Z,98552.31
2022-11-16T03:45:04.682Z,98561.91
2022-11-16T03:47:34.692Z,98574.38
2022-11-16T03:50:06.012Z,98577.56
2022-11-16T03:52:35.021Z,98586.31
2022-11-16T03:55:05.160Z,98586.31
2022-11-16T03:57:45.727Z,98577.31
2022-11-16T04:00:15.571Z,98581.56
2022-11-16T04:02:46.405Z,98578.09
2022-11-16T04:05:37.916Z,98580.25
2022-11-16T04:08:24.368Z,98580.53
2022-11-16T04:11:10.681Z,98573.88
2022-11-16T04:13:56.852Z,98573.09
2022-11-16T04:16:45.221Z,98556.66
2022-11-16T04:19:32.378Z,98561.72
2022-11-16T04:22:21.834Z,98560.66
2022-11-16T04:24:55.324Z,98551.91
2022-11-16T04:27:48.739Z,98568.31
2022-11-16T04:30:18.006Z,98575.81
2022-11-16T04:33:06.390Z,98570.75
2022-11-16T04:35:53.724Z,98589.06
2022-11-16T04:38:22.432Z,98597.31
2022-11-16T04:40:50.929Z,98594.38
2022-11-16T04:43:18.282Z,98603.69
2022-11-16T04:46:05.122Z,98605.28
2022-11-16T04:48:40.893Z,98597.06
2022-11-16T04:51:12.535Z,98595.22
2022-11-16T04:53:41.272Z,98585.38
2022-11-16T04:56:17.975Z,98589.63
2022-11-16T04:58:46.501Z,98589.09
2022-11-16T05:01:15.441Z,98592.28
2022-11-16T05:03:45.377Z,98593.34
2022-11-16T05:06:15.590Z,98592.28
2022-11-16T05:08:44.079Z,98592.56
2022-11-16T05:11:12.586Z,98600.25
2022-11-16T05:13:41.565Z,98604.47
2022-11-16T05:16:10.254Z,98597.03
2022-11-16T05:18:38.691Z,98600.78
2022-11-16T05:21:06.973Z,98614.31
2022-11-16T05:23:57.582Z,98614.31
2022-11-16T05:26:30.664Z,98610.88
2022-11-16T05:28:59.111Z,98614.59
2022-11-16T05:31:28.041Z,98608.50
2022-11-16T05:33:56.452Z,98610.06
2022-11-16T05:36:25.736Z,98611.94
2022-11-16T05:38:56.474Z,98596.25
2022-11-16T05:41:29.075Z,98627.34
2022-11-16T05:44:00.406Z,98629.72
2022-11-16T05:46:28.846Z,98625.72
2022-11-16T05:49:00.418Z,98626.25
2022-11-16T05:51:29.110Z,98619.38
2022-11-16T05:53:59.088Z,98620.69
2022-11-16T05:56:28.421Z,98616.47
2022-11-16T05:58:57.151Z,98614.06
2022-11-16T06:01:27.412Z,98608.75
2022-11-16T06:03:55.876Z,98606.09
2022-11-16T06:06:24.861Z,98620.16
2022-11-16T06:08:54.168Z,98610.09
2022-11-16T06:11:32.706Z,98614.34
2022-11-16T06:14:04.583Z,98620.72
2022-11-16T06:16:34.063Z,98611.94
2022-11-16T06:19:05.142Z,98627.34
2022-11-16T06:21:33.690Z,98625.19
2022-11-16T06:24:09.143Z,98628.69
2022-11-16T06:26:39.484Z,98628.41
2022-11-16T06:29:07.984Z,98632.91
2022-11-16T06:31:39.564Z,98638.50
2022-11-16T06:34:08.047Z,98646.47
2022-11-16T06:36:36.495Z,98643.03
2022-11-16T06:39:05.389Z,98636.16
2022-11-16T06:41:41.531Z,98648.34
2022-11-16T06:44:14.761Z,98641.47
2022-11-16T06:46:53.169Z,98640.63
2022-11-16T06:49:21.564Z,98643.28
2022-11-16T06:51:52.120Z,98642.25
2022-11-16T06:54:21.680Z,98640.63
2022-11-16T06:56:52.408Z,98651.50
2022-11-16T06:59:21.087Z,98653.66
2022-11-16T07:01:51.145Z,98662.41
2022-11-16T07:04:19.890Z,98653.66
2022-11-16T07:06:54.709Z,98653.41
2022-11-16T07:09:23.341Z,98644.91
2022-11-16T07:11:53.350Z,98659.75
2022-11-16T07:14:22.817Z,98669.31
2022-11-16T07:16:56.290Z,98670.38
2022-11-16T07:19:27.656Z,98666.94
2022-11-16T07:21:56.054Z,98667.75
2022-11-16T07:24:25.105Z,98674.13
2022-11-16T07:26:54.958Z,98674.91
2022-11-16T07:29:26.718Z,98676.22
2022-11-16T07:32:15.306Z,98679.97
2022-11-16T07:35:07.576Z,98677.56
2022-11-16T07:37:37.769Z,98683.16
2022-11-16T07:40:09.188Z,98692.69
2022-11-16T07:42:40.578Z,98694.84
2022-11-16T07:45:29.290Z,98686.88
2022-11-16T07:48:07.692Z,98695.63
2022-11-16T07:50:54.461Z,98690.59
2022-11-16T07:53:24.320Z,98694.84
2022-11-16T07:55:54.565Z,98704.94
2022-11-16T07:58:26.332Z,98717.66
2022-11-16T08:00:56.274Z,98713.44
2022-11-16T08:03:25.076Z,98711.56
2022-11-16T08:06:01.386Z,98707.06
2022-11-16T08:08:30.484Z,98718.75
2022-11-16T08:11:01.730Z,98719.78
2022-11-16T08:13:34.258Z,98723.53
2022-11-16T08:16:07.895Z,98730.97
2022-11-16T08:18:37.431Z,98731.22
2022-11-16T08:21:07.830Z,98734.97
2022-11-16T08:23:37.025Z,98729.91
2022-11-16T08:26:09.412Z,98734.66
2022-11-16T08:28:40.739Z,98733.63
2022-11-16T08:31:12.416Z,98729.91
2022-11-16T08:33:42.652Z,98730.16
2022-11-16T08:36:17.446Z,98736.25
2022-11-16T08:38:48.104Z,98743.44
2022-11-16T08:41:18.506Z,98724.84
2022-11-16T08:43:50.674Z,98732.81
2022-11-16T08:46:22.094Z,98733.59
2022-11-16T08:48:57.970Z,98738.38
2022-11-16T08:51:27.475Z,98741.53
2022-11-16T08:54:03.718Z,98734.91
2022-11-16T08:56:33.319Z,98737.28
2022-11-16T08:59:03.093Z,98740.47
2022-11-16T09:01:35.322Z,98746.56
2022-11-16T09:04:03.961Z,98745.00
2022-11-16T09:06:32.536Z,98753.25
2022-11-16T09:09:01.078Z,98749.00
2022-11-16T09:11:29.588Z,98756.41
2022-11-16T09:13:59.011Z,98758.00
2022-11-16T09:16:29.021Z,98763.31
2022-11-16T09:18:57.540Z,98761.47
2022-11-16T09:21:29.344Z,98759.59
2022-11-16T09:23:59.175Z,98768.09
2022-11-16T09:26:28.602Z,98760.94
2022-11-16T09:28:59.223Z,98756.91
2022-11-16T09:31:30.170Z,98756.66
2022-11-16T09:33:59.912Z,98757.44
2022-11-16T09:36:29.449Z,98755.84
2022-11-16T09:42:08.373Z,98768.31
2022-11-16T09:45:00.482Z,98762.75
2022-11-16T09:47:46.431Z,98774.97
2022-11-16T09:50:30.991Z,98773.91
2022-11-16T09:53:09.208Z,98775.75
2022-11-16T09:55:44.630Z,98775.47
2022-11-16T09:58:17.587Z,98781.31
2022-11-16T10:00:52.444Z,98777.34
2022-11-16T10:03:22.265Z,98769.88
2022-11-16T10:06:02.758Z,98776.50
2022-11-16T10:08:44.318Z,98777.03
2022-11-16T10:11:45.332Z,98773.81
2022-11-16T10:14:45.333Z,98768.53
2022-11-16T10:17:27.307Z,98770.91
2022-11-16T10:20:03.222Z,98764.25
2022-11-16T10:22:42.984Z,98765.84
2022-11-16T10:25:17.602Z,98764.22
2022-11-16T10:28:07.718Z,98766.59
2022-11-16T10:30:40.735Z,98763.69
2022-11-16T10:33:15.864Z,98758.63
2022-11-16T10:35:52.014Z,98758.34
2022-11-16T10:38:24.142Z,98755.13
2022-11-16T10:40:56.945Z,98745.34
2022-11-16T10:43:27.878Z,98747.66
2022-11-16T10:46:04.343Z,98747.41
2022-11-16T10:48:39.697Z,98745.53
2022-11-16T10:51:10.989Z,98742.59
2022-11-16T10:53:42.513Z,98734.38
2022-11-16T10:56:22.533Z,98733.28
2022-11-16T10:58:57.867Z,98729.56
2022-11-16T11:01:32.992Z,98731.66
2022-11-16T11:04:20.251Z,98727.94
2022-11-16T11:06:52.790Z,98732.69
2022-11-16T11:09:31.694Z,98733.72
2022-11-16T11:12:34.121Z,98730.81
2022-11-16T11:15:07.915Z,98726.00
2022-11-16T11:17:40.907Z,98715.66
2022-11-16T11:20:23.472Z,98723.31
2022-11-16T11:22:57.207Z,98735.28
2022-11-16T11:25:30.030Z,98715.59
2022-11-16T11:28:08.027Z,98731.25
2022-11-16T11:30:37.198Z,98725.69
2022-11-16T11:33:12.752Z,98726.19
2022-11-16T11:35:41.200Z,98725.09
2022-11-16T11:38:17.147Z,98715.28
2022-11-16T11:40:59.012Z,98715.78
2022-11-16T11:43:29.489Z,98715.53
2022-11-16T11:46:07.412Z,98700.63
2022-11-16T11:48:47.870Z,98709.91
2022-11-16T11:51:22.796Z,98707.00
2022-11-16T11:53:57.864Z,98707.00
2022-11-16T11:56:28.161Z,98711.75
2022-11-16T11:58:57.660Z,98705.66
2022-11-16T12:02:13.735Z,98701.41
2022-11-16T12:05:16.030Z,98704.31
2022-11-16T12:08:10.502Z,98699.81
2022-11-16T12:10:48.739Z,98696.09
2022-11-16T12:13:46.517Z,98694.50
2022-11-16T12:16:26.506Z,98693.66
2022-11-16T12:19:12.931Z,98689.66
2022-11-16T12:21:57.225Z,98685.13
2022-11-16T12:24:41.687Z,98685.13
2022-11-16T12:27:27.077Z,98675.28
2022-11-16T12:30:04.169Z,98674.19
2022-11-16T12:33:11.286Z,98675.53
2022-11-16T12:35:49.962Z,98672.63
2022-11-16T12:38:36.919Z,98671.53
2022-11-16T12:41:32.639Z,98661.19
2022-11-16T12:44:05.879Z,98665.66
2022-11-16T12:46:49.052Z,98667.53
2022-11-16T12:49:55.812Z,98661.13
2022-11-16T12:52:57.086Z,98658.47
2022-11-16T12:55:33.579Z,98649.41
2022-11-16T12:58:18.136Z,98648.34
2022-11-16T13:00:59.689Z,98645.41
2022-11-16T13:03:37.557Z,98649.38
2022-11-16T13:06:11.256Z,98644.56
2022-11-16T13:08:49.655Z,98639.25
2022-11-16T13:11:23.648Z,98636.31
2022-11-16T13:13:57.711Z,98632.06
2022-11-16T13:16:28.890Z,98633.13
2022-11-16T13:18:58.744Z,98627.53
2022-11-16T13:21:38.335Z,98618.25
2022-11-16T13:24:25.320Z,98627.53
2022-11-16T13:27:04.922Z,98620.91
2022-11-16T13:29:39.017Z,98620.63
2022-11-16T13:32:15.220Z,98617.16
2022-11-16T13:34:43.959Z,98614.25
2022-11-16T13:37:44.253Z,98612.94
2022-11-16T13:40:26.160Z,98603.88
2022-11-16T13:43:20.478Z,98595.88
2022-11-16T13:45:58.992Z,98594.53
2022-11-16T13:48:34.472Z,98596.09
2022-11-16T13:51:06.859Z,98595.03
2022-11-16T13:56:29.677Z,98588.91
2022-11-16T13:59:00.030Z,98586.00
2022-11-16T14:01:59.906Z,98593.19
2022-11-16T14:04:55.988Z,98597.19
2022-11-16T14:07:35.354Z,98595.03
2022-11-16T14:10:07.977Z,98596.63
2022-11-16T14:12:58.262Z,98577.47
2022-11-16T14:15:35.904Z,98571.59
2022-11-16T14:18:37.077Z,98564.19
2022-11-16T14:21:17.476Z,98569.50
2022-11-16T14:24:06.411Z,98562.31
2022-11-16T14:26:47.097Z,98554.06
2022-11-16T14:29:46.615Z,98563.91
2022-11-16T14:32:23.241Z,98560.16
2022-11-16T14:34:54.606Z,98562.53
2022-11-16T14:37:37.450Z,98559.09
2022-11-16T14:40:14.246Z,98566.81
2022-11-16T14:43:15.353Z,98558.00
2022-11-16T14:45:40.887Z,98556.16
2022-11-16T14:48:18.055Z,98566.81
2022-11-16T14:51:01.697Z,98558.00
2022-11-16T14:53:33.781Z,98556.44
2022-11-16T14:56:12.383Z,98558.84
2022-11-16T14:58:45.354Z,98568.94
2022-11-16T15:01:15.974Z,98568.41
2022-11-16T15:03:56.203Z,98559.16
2022-11-16T15:06:27.596Z,98572.16
2022-11-16T15:09:01.706Z,98565.25
2022-11-16T15:11:46.960Z,98564.47
2022-11-16T15:14:22.342Z,98559.16
2022-11-16T15:16:52.980Z,98558.38
2022-11-16T15:19:22.348Z,98546.94
2022-11-16T15:21:56.044Z,98545.31
2022-11-16T15:24:31.468Z,98555.97
2022-11-16T15:27:17.071Z,98550.66
2022-11-16T15:29:45.825Z,98545.88
2022-11-16T15:32:17.962Z,98536.06
2022-11-16T15:34:49.192Z,98538.19
2022-11-16T15:37:29.003Z,98540.34
2022-11-16T15:40:00.064Z,98532.66
2022-11-16T15:42:29.565Z,98519.44
2022-11-16T15:45:01.288Z,98525.53
2022-11-16T15:47:31.803Z,98523.91
2022-11-16T15:50:00.340Z,98522.91
2022-11-16T15:52:50.287Z,98523.22
2022-11-16T15:55:33.164Z,98526.94
2022-11-16T15:58:16.258Z,98525.09
2022-11-16T16:00:49.463Z,98532.28
2022-11-16T16:03:24.675Z,98522.78
2022-11-16T16:05:54.704Z,98515.28
2022-11-16T16:08:31.354Z,98509.75
2022-11-16T16:11:09.713Z,98505.78
2022-11-16T16:13:40.551Z,98493.34
2022-11-16T16:16:27.381Z,98513.03
2022-11-16T16:19:02.601Z,98503.50
2022-11-16T16:21:46.910Z,98519.19
2022-11-16T16:24:41.627Z,98517.66
2022-11-16T16:27:20.408Z,98522.97
2022-11-16T16:29:50.690Z,98525.88
2022-11-16T16:32:26.836Z,98521.16
2022-11-16T16:34:56.541Z,98512.66
2022-11-16T16:37:30.104Z,98514.53
2022-11-16T16:39:58.631Z,98509.47
2022-11-16T16:42:28.563Z,98508.97
2022-11-16T16:45:00.143Z,98504.50
2022-11-16T16:47:28.835Z,98505.28
2022-11-16T16:49:57.376Z,98503.72
2022-11-16T16:52:25.913Z,98496.81
2022-11-16T16:54:54.351Z,98492.84
2022-11-16T16:57:22.815Z,98485.47
2022-11-16T16:59:52.616Z,98499.00
2022-11-16T17:02:21.038Z,98494.75
2022-11-16T17:04:49.445Z,98492.16
2022-11-16T17:07:18.215Z,98478.88
2022-11-16T17:09:46.616Z,98489.75
2022-11-16T17:12:15.003Z,98496.94
2022-11-16T17:14:43.975Z,98489.03
2022-11-16T17:17:14.149Z,98486.38
2022-11-16T17:19:42.553Z,98479.22
2022-11-16T17:22:10.949Z,98472.56
2022-11-16T17:24:39.458Z,98469.91
2022-11-16T17:27:08.434Z,98469.97
2022-11-16T17:29:37.368Z,98462.78
2022-11-16T17:32:06.605Z,98463.03
2022-11-16T17:34:38.039Z,98458.31
2022-11-16T17:37:06.644Z,98456.69
2022-11-16T17:39:35.410Z,98464.66
2022-11-16T17:42:04.060Z,98459.91
2022-11-16T17:44:32.593Z,98452.75
2022-11-16T17:47:01.243Z,98450.41
2022-11-16T17:49:29.856Z,98455.72
2022-11-16T17:52:01.710Z,98457.03
2022-11-16T17:54:30.158Z,98458.38
2022-11-16T17:57:00.992Z,98448.56
2022-11-16T17:59:30.131Z,98445.38
2022-11-16T18:02:00.976Z,98442.72
2022-11-16T18:04:29.379Z,98437.41
2022-11-16T18:07:00.743Z,98440.34
2022-11-16T18:09:29.404Z,98425.75
2022-11-16T18:11:58.646Z,98421.00
2022-11-16T18:14:28.184Z,98426.03
2022-11-16T18:16:56.645Z,98427.09
2022-11-16T18:19:25.834Z,98423.94
2022-11-16T18:21:54.326Z,98430.56
2022-11-16T18:24:24.237Z,98421.81
2022-11-16T18:26:55.326Z,98422.38
2022-11-16T18:29:23.823Z,98425.81
2022-11-16T18:31:52.357Z,98425.81
2022-11-16T18:34:20.867Z,98412.75
2022-11-16T18:36:50.854Z,98416.50
2022-11-16T18:39:19.333Z,98410.41
2022-11-16T18:41:54.719Z,98409.63
2022-11-16T18:44:24.034Z,98409.63
2022-11-16T18:46:52.477Z,98420.78
2022-11-16T18:49:20.913Z,98419.22
2022-11-16T18:51:49.341Z,98414.16
2022-11-16T18:54:17.818Z,98400.38
2022-11-16T18:56:46.252Z,98390.03
2022-11-16T18:59:16.182Z,98389.53
2022-11-16T19:01:44.651Z,98378.94
2022-11-16T19:04:13.188Z,98384.78
2022-11-16T19:06:41.648Z,98378.16
2022-11-16T19:09:10.544Z,98377.91
2022-11-16T19:11:39.035Z,98371.59
2022-11-16T19:14:08.625Z,98362.31
2022-11-16T19:16:43.062Z,98373.69
2022-11-16T19:19:18.661Z,98376.66
2022-11-16T19:21:47.516Z,98373.47
2022-11-16T19:24:21.204Z,98385.94
2022-11-16T19:26:49.614Z,98387.03
2022-11-16T19:29:18.143Z,98381.47
2022-11-16T19:31:47.964Z,98376.69
2022-11-16T19:34:16.569Z,98375.09
2022-11-16T19:36:44.984Z,98376.16
2022-11-16T19:39:13.376Z,98373.22
2022-11-16T19:41:41.874Z,98371.41
2022-11-16T19:44:10.384Z,98371.41
2022-11-16T19:46:38.863Z,98369.00
2022-11-16T19:49:13.441Z,98369.28
2022-11-16T19:51:44.168Z,98373.53
2022-11-16T19:54:14.449Z,98382.28
2022-11-16T19:56:43.008Z,98379.13
2022-11-16T19:59:11.515Z,98379.91
2022-11-16T20:01:39.894Z,98374.59
2022-11-16T20:04:10.312Z,98373.53
2022-11-16T20:06:40.709Z,98370.06
2022-11-16T20:09:12.191Z,98370.06
2022-11-16T20:11:42.952Z,98360.25
2022-11-16T20:14:13.770Z,98361.03
2022-11-16T20:16:44.743Z,98357.31
2022-11-16T20:19:15.765Z,98337.44
2022-11-16T20:21:45.054Z,98329.97
2022-11-16T20:24:15.774Z,98334.50
2022-11-16T20:26:46.594Z,98339.81
2022-11-16T20:29:17.577Z,98337.44
2022-11-16T20:31:47.101Z,98342.75
2022-11-16T20:34:20.316Z,98340.88
2022-11-16T20:36:50.797Z,98353.06
2022-11-16T20:39:21.308Z,98345.16
2022-11-16T20:41:50.018Z,98358.69
2022-11-16T20:44:22.178Z,98354.44
2022-11-16T20:46:52.335Z,98344.88
2022-11-16T20:49:22.245Z,98329.00
2022-11-16T20:51:51.356Z,98323.69
2022-11-16T20:54:19.918Z,98326.59
2022-11-16T20:56:50.258Z,98318.09
2022-11-16T20:59:18.723Z,98325.28
2022-11-16T21:01:48.778Z,98326.06
2022-11-16T21:04:17.613Z,98308.03
2022-11-16T21:06:47.496Z,98308.88
2022-11-16T21:09:22.363Z,98301.16
2022-11-16T21:12:08.711Z,98301.44
2022-11-16T21:14:37.224Z,98306.53
2022-11-16T21:17:05.822Z,98304.41
2022-11-16T21:19:34.208Z,98304.91
2022-11-16T21:22:03.977Z,98299.91
2022-11-16T21:24:32.423Z,98300.97
2022-11-16T21:27:00.891Z,98280.56
2022-11-16T21:29:30.412Z,98287.19
2022-11-16T21:31:58.839Z,98286.69
2022-11-16T21:34:37.274Z,98281.66
2022-11-16T21:37:09.697Z,98283.50
2022-11-16T21:39:38.069Z,98282.72
2022-11-16T21:42:07.003Z,98284.06
2022-11-16T21:44:41.952Z,98281.16
2022-11-16T21:47:10.557Z,98266.28
2022-11-16T21:49:59.264Z,98267.34
2022-11-16T21:52:29.717Z,98277.19
2022-11-16T21:55:00.427Z,98281.69
2022-11-16T21:57:28.996Z,98261.03
2022-11-16T21:59:57.387Z,98262.59
2022-11-16T22:02:25.726Z,98260.75
2022-11-16T22:05:11.350Z,98254.94
2022-11-16T22:07:41.856Z,98262.38
2022-11-16T22:10:13.323Z,98257.06
2022-11-16T22:12:41.729Z,98265.31
2022-11-16T22:15:11.199Z,98263.72
2022-11-16T22:17:44.588Z,98267.44
2022-11-16T22:20:13.560Z,98271.16
2022-11-16T22:22:43.378Z,98267.72
2022-11-16T22:25:13.865Z,98274.09
2022-11-16T22:28:06.004Z,98269.59
2022-11-16T22:30:31.297Z,98257.13
2022-11-16T22:32:59.695Z,98241.75
2022-11-16T22:35:28.082Z,98245.75
2022-11-16T22:37:59.275Z,98239.16
2022-11-16T22:40:27.620Z,98260.06
2022-11-16T22:42:58.759Z,98242.59
2022-11-16T22:45:27.792Z,98241.81
2022-11-16T22:47:56.620Z,98247.66
2022-11-16T22:50:25.012Z,98238.09
2022-11-16T22:52:53.445Z,98228.88
2022-11-16T22:55:23.204Z,98217.19
2022-11-16T22:57:52.109Z,98217.19
2022-11-16T23:00:21.201Z,98210.84
2022-11-16T23:02:49.758Z,98204.47
2022-11-16T23:05:18.286Z,98204.22
2022-11-16T23:07:46.833Z,98203.41
2022-11-16T23:10:15.908Z,98215.63
2022-11-16T23:13:02.991Z,98208.75
2022-11-16T23:15:48.902Z,98209.81
2022-11-16T23:18:19.608Z,98200.28
2022-11-16T23:21:05.477Z,98196.03
2022-11-16T23:23:51.437Z,98183.88
2022-11-16T23:26:42.010Z,98182.56
2022-11-16T23:29:12.489Z,98179.13
2022-11-16T23:31:40.917Z,98173.81
2022-11-16T23:34:09.334Z,98174.59
2022-11-16T23:36:37.738Z,98173.56
2022-11-16T23:39:06.624Z,98149.16
2022-11-16T23:41:52.510Z,98164.22
2022-11-16T23:44:22.264Z,98147.53
2022-11-16T23:46:50.594Z,98141.94
2022-11-16T23:49:19.009Z,98134.81
2022-11-16T23:51:47.349Z,98131.88
2022-11-16T23:54:15.723Z,98136.38
2022-11-16T23:56:44.126Z,98135.31
2022-11-16T23:59:12.557Z,98132.66
